createdAt,value
2022-08-09T00:00:04.742Z,100379.84
2022-08-09T00:02:43.060Z,100391.59
2022-08-09T00:06:18.146Z,100393.06
2022-08-09T00:08:10.092Z,100394.31
2022-08-09T00:10:40.628Z,100389.03
2022-08-09T00:13:16.722Z,100390.66
2022-08-09T00:15:57.600Z,100389.59
2022-08-09T00:18:27.406Z,100381.00
2022-08-09T00:20:56.038Z,100382.25
2022-08-09T00:23:57.513Z,100370.13
2022-08-09T00:26:11.347Z,100378.25
2022-08-09T00:28:39.909Z,100373.22
2022-08-09T00:31:09.240Z,100378.44
2022-08-09T00:33:55.638Z,100384.03
2022-08-09T00:36:27.160Z,100393.59
2022-08-09T00:38:58.834Z,100394.03
2022-08-09T00:44:14.339Z,100406.66
2022-08-09T00:44:24.642Z,100409.38
2022-08-09T00:47:01.713Z,100402.72
2022-08-09T00:49:33.527Z,100407.41
2022-08-09T00:52:05.053Z,100410.31
2022-08-09T00:54:36.263Z,100415.72
2022-08-09T00:57:08.986Z,100412.16
2022-08-09T00:59:41.404Z,100410.06
2022-08-09T01:02:15.622Z,100401.19
2022-08-09T01:04:51.796Z,100404.13
2022-08-09T01:08:00.906Z,100398.59
2022-08-09T01:10:36.429Z,100393.19
2022-08-09T01:13:22.203Z,100400.09
2022-08-09T01:15:53.028Z,100398.22
2022-08-09T01:18:30.484Z,100393.59
2022-08-09T01:21:13.778Z,100394.72
2022-08-09T01:24:02.808Z,100390.53
2022-08-09T01:26:56.438Z,100394.31
2022-08-09T01:29:40.939Z,100394.75
2022-08-09T01:32:31.575Z,100400.44
2022-08-09T01:35:07.255Z,100399.34
2022-08-09T01:38:08.265Z,100401.03
2022-08-09T01:40:41.490Z,100402.09
2022-08-09T01:43:10.235Z,100414.44
2022-08-09T01:45:46.428Z,100406.66
2022-08-09T01:48:17.523Z,100411.44
2022-08-09T01:50:54.737Z,100413.28
2022-08-09T01:53:23.870Z,100405.13
2022-08-09T01:55:57.469Z,100414.16
2022-08-09T01:58:28.005Z,100417.63
2022-08-09T02:00:57.614Z,100421.97
2022-08-09T02:03:25.965Z,100412.09
2022-08-09T02:06:03.721Z,100422.91
2022-08-09T02:08:57.614Z,100422.03
2022-08-09T02:11:42.113Z,100413.59
2022-08-09T02:14:15.846Z,100417.72
2022-08-09T02:16:59.563Z,100416.44
2022-08-09T02:19:43.493Z,100413.16
2022-08-09T02:22:19.093Z,100411.13
2022-08-09T02:24:58.867Z,100406.13
2022-08-09T02:27:43.531Z,100403.41
2022-08-09T02:30:18.117Z,100401.47
2022-08-09T02:32:48.601Z,100401.53
2022-08-09T02:35:26.151Z,100397.97
2022-08-09T02:38:27.853Z,100388.97
2022-08-09T02:41:02.341Z,100380.50
2022-08-09T02:43:42.597Z,100376.28
2022-08-09T02:46:24.664Z,100378.22
2022-08-09T02:48:53.943Z,100388.69
2022-08-09T02:51:24.189Z,100388.75
2022-08-09T02:54:00.804Z,100385.03
2022-08-09T02:56:31.915Z,100374.13
2022-08-09T02:59:02.345Z,100378.81
2022-08-09T03:01:58.694Z,100367.78
2022-08-09T03:04:20.019Z,100361.47
2022-08-09T03:06:48.975Z,100360.88
2022-08-09T03:09:18.395Z,100362.47
2022-08-09T03:12:05.944Z,100353.69
2022-08-09T03:14:36.567Z,100353.19
2022-08-09T03:17:05.640Z,100356.41
2022-08-09T03:19:58.026Z,100354.31
2022-08-09T03:22:25.433Z,100352.88
2022-08-09T03:25:05.916Z,100351.22
2022-08-09T03:27:48.889Z,100352.28
2022-08-09T03:30:30.069Z,100347.44
2022-08-09T03:33:13.166Z,100352.75
2022-08-09T03:36:12.303Z,100351.84
2022-08-09T03:38:43.154Z,100349.19
2022-08-09T03:41:15.259Z,100353.00
2022-08-09T03:44:02.837Z,100367.69
2022-08-09T03:46:31.987Z,100356.41
2022-08-09T03:49:04.276Z,100361.69
2022-08-09T03:51:57.745Z,100354.31
2022-08-09T03:54:31.132Z,100359.81
2022-08-09T03:57:04.466Z,100358.31
2022-08-09T03:59:54.652Z,100356.00
2022-08-09T04:02:26.574Z,100356.63
2022-08-09T04:04:56.707Z,100360.22
2022-08-09T04:07:47.593Z,100367.56
2022-08-09T04:10:20.225Z,100375.97
2022-08-09T04:12:51.888Z,100378.84
2022-08-09T04:15:38.914Z,100372.81
2022-08-09T04:18:09.771Z,100374.75
2022-08-09T04:20:47.355Z,100376.47
2022-08-09T04:23:17.154Z,100389.91
2022-08-09T04:25:52.295Z,100383.63
2022-08-09T04:28:34.099Z,100387.41
2022-08-09T04:31:09.002Z,100386.31
2022-08-09T04:33:52.497Z,100389.88
2022-08-09T04:36:28.357Z,100391.34
2022-08-09T04:38:59.246Z,100386.50
2022-08-09T04:41:32.307Z,100387.97
2022-08-09T04:44:07.197Z,100392.84
2022-08-09T04:46:59.323Z,100375.63
2022-08-09T04:49:52.326Z,100386.34
2022-08-09T04:52:26.707Z,100376.69
2022-08-09T04:54:56.354Z,100384.28
2022-08-09T04:57:25.102Z,100380.44
2022-08-09T04:59:54.403Z,100381.69
2022-08-09T05:02:22.457Z,100387.34
2022-08-09T05:04:55.324Z,100388.56
2022-08-09T05:07:23.800Z,100385.59
2022-08-09T05:09:51.358Z,100385.66
2022-08-09T05:12:18.802Z,100386.31
2022-08-09T05:15:01.048Z,100393.44
2022-08-09T05:18:38.801Z,100392.22
2022-08-09T05:20:18.093Z,100391.84
2022-08-09T05:23:53.796Z,100397.31
2022-08-09T05:25:33.075Z,100401.72
2022-08-09T05:28:02.548Z,100396.88
2022-08-09T05:30:31.297Z,100393.53
2022-08-09T05:32:58.752Z,100399.53
2022-08-09T05:35:26.118Z,100396.03
2022-08-09T05:37:57.323Z,100390.56
2022-08-09T05:40:28.210Z,100396.81
2022-08-09T05:42:56.592Z,100396.25
2022-08-09T05:45:25.480Z,100394.56
2022-08-09T05:48:10.895Z,100393.84
2022-08-09T05:50:51.221Z,100401.63
2022-08-09T05:53:31.748Z,100400.16
2022-08-09T05:56:01.553Z,100396.59
2022-08-09T05:58:28.802Z,100387.31
2022-08-09T06:00:55.874Z,100391.53
2022-08-09T06:03:25.213Z,100394.91
2022-08-09T06:06:06.105Z,100393.22
2022-08-09T06:08:33.896Z,100395.34
2022-08-09T06:11:01.334Z,100395.13
2022-08-09T06:13:44.640Z,100409.00
2022-08-09T06:16:14.478Z,100399.97
2022-08-09T06:18:43.535Z,100401.00
2022-08-09T06:21:10.919Z,100398.94
2022-08-09T06:23:55.610Z,100409.91
2022-08-09T06:26:28.727Z,100407.78
2022-08-09T06:29:00.330Z,100406.53
2022-08-09T06:31:39.954Z,100412.44
2022-08-09T06:34:20.437Z,100406.13
2022-08-09T06:36:58.918Z,100407.63
2022-08-09T06:39:48.721Z,100399.66
2022-08-09T06:42:16.988Z,100397.09
2022-08-09T06:44:54.087Z,100399.44
2022-08-09T06:47:22.490Z,100398.78
2022-08-09T06:50:13.978Z,100405.94
2022-08-09T06:52:46.936Z,100400.28
2022-08-09T06:55:16.557Z,100397.78
2022-08-09T06:58:03.502Z,100401.81
2022-08-09T07:00:48.979Z,100405.59
2022-08-09T07:03:27.709Z,100398.44
2022-08-09T07:06:02.781Z,100390.22
2022-08-09T07:08:31.910Z,100393.16
2022-08-09T07:10:58.983Z,100392.94
2022-08-09T07:13:28.185Z,100395.84
2022-08-09T07:16:42.390Z,100393.31
2022-08-09T07:18:44.721Z,100384.44
2022-08-09T07:21:14.761Z,100391.38
2022-08-09T07:23:56.351Z,100390.72
2022-08-09T07:26:25.436Z,100399.56
2022-08-09T07:29:08.917Z,100382.25
2022-08-09T07:31:44.951Z,100390.66
2022-08-09T07:34:19.296Z,100395.22
2022-08-09T07:36:48.839Z,100396.34
2022-08-09T07:39:20.396Z,100389.00
2022-08-09T07:42:03.395Z,100404.28
2022-08-09T07:44:50.824Z,100393.88
2022-08-09T07:47:24.996Z,100396.53
2022-08-09T07:50:07.798Z,100392.72
2022-08-09T07:52:36.863Z,100392.91
2022-08-09T07:55:09.820Z,100391.38
2022-08-09T07:57:46.998Z,100391.00
2022-08-09T08:00:20.813Z,100383.44
2022-08-09T08:03:04.540Z,100390.78
2022-08-09T08:05:53.598Z,100393.06
2022-08-09T08:09:01.361Z,100392.81
2022-08-09T08:12:11.194Z,100403.66
2022-08-09T08:13:56.605Z,100406.41
2022-08-09T08:16:29.713Z,100406.16
2022-08-09T08:18:59.577Z,100406.53
2022-08-09T08:21:30.995Z,100404.81
2022-08-09T08:24:00.937Z,100402.06
2022-08-09T08:26:41.875Z,100409.69
2022-08-09T08:29:20.065Z,100413.09
2022-08-09T08:32:03.866Z,100407.34
2022-08-09T08:34:34.738Z,100404.16
2022-08-09T08:37:04.393Z,100403.59
2022-08-09T08:39:39.821Z,100399.72
2022-08-09T08:42:11.598Z,100407.22
2022-08-09T08:44:39.575Z,100414.16
2022-08-09T08:47:12.511Z,100404.59
2022-08-09T08:49:46.754Z,100404.00
2022-08-09T08:52:52.707Z,100409.97
2022-08-09T08:55:05.686Z,100408.41
2022-08-09T08:57:35.113Z,100406.28
2022-08-09T09:00:12.842Z,100411.41
2022-08-09T09:02:52.722Z,100407.19
2022-08-09T09:05:57.772Z,100403.81
2022-08-09T09:08:29.856Z,100399.38
2022-08-09T09:11:03.285Z,100409.22
2022-08-09T09:13:55.759Z,100406.38
2022-08-09T09:16:30.629Z,100402.81
2022-08-09T09:19:22.668Z,100413.41
2022-08-09T09:22:04.276Z,100404.63
2022-08-09T09:24:44.892Z,100406.09
2022-08-09T09:28:03.058Z,100401.66
2022-08-09T09:33:15.803Z,100398.53
2022-08-09T09:36:01.896Z,100388.25
2022-08-09T09:38:46.659Z,100393.16
2022-08-09T09:41:33.365Z,100399.59
2022-08-09T09:44:31.397Z,100395.44
2022-08-09T09:47:10.469Z,100394.91
2022-08-09T09:50:07.758Z,100389.47
2022-08-09T09:52:36.748Z,100387.13
2022-08-09T09:55:23.858Z,100384.81
2022-08-09T09:58:18.003Z,100386.53
2022-08-09T10:00:52.572Z,100388.78
2022-08-09T10:04:00.137Z,100393.59
2022-08-09T10:06:42.926Z,100380.69
2022-08-09T10:09:23.089Z,100384.38
2022-08-09T10:12:14.211Z,100382.47
2022-08-09T10:14:50.021Z,100390.00
2022-08-09T10:17:39.906Z,100395.81
2022-08-09T10:20:27.371Z,100388.47
2022-08-09T10:23:20.911Z,100385.09
2022-08-09T10:26:06.766Z,100383.16
2022-08-09T10:28:38.501Z,100389.81
2022-08-09T10:34:09.610Z,100391.19
2022-08-09T10:36:43.592Z,100393.53
2022-08-09T10:39:15.383Z,100395.91
2022-08-09T10:41:43.424Z,100394.13
2022-08-09T10:44:11.119Z,100405.25
2022-08-09T10:48:16.674Z,100396.19
2022-08-09T10:50:54.117Z,100400.88
2022-08-09T10:53:38.041Z,100393.38
2022-08-09T10:56:22.836Z,100394.78
2022-08-09T10:58:54.009Z,100389.16
2022-08-09T11:03:11.854Z,100390.44
2022-08-09T11:04:30.968Z,100393.28
2022-08-09T11:07:00.094Z,100395.34
2022-08-09T11:09:48.114Z,100382.41
2022-08-09T11:12:26.591Z,100374.94
2022-08-09T11:15:24.125Z,100378.88
2022-08-09T11:18:02.598Z,100372.53
2022-08-09T11:20:49.698Z,100370.16
2022-08-09T11:23:17.330Z,100369.91
2022-08-09T11:25:54.714Z,100368.22
2022-08-09T11:28:56.498Z,100368.44
2022-08-09T11:31:52.700Z,100358.81
2022-08-09T11:34:51.590Z,100361.38
2022-08-09T11:37:28.082Z,100354.72
2022-08-09T11:40:10.593Z,100356.03
2022-08-09T11:42:43.609Z,100351.75
2022-08-09T11:45:37.788Z,100349.88
2022-08-09T11:48:19.414Z,100344.81
2022-08-09T11:52:56.353Z,100344.13
2022-08-09T11:54:00.994Z,100345.63
2022-08-09T11:56:41.706Z,100342.00
2022-08-09T11:59:12.483Z,100347.50
2022-08-09T12:02:17.379Z,100339.25
2022-08-09T12:04:37.179Z,100339.84
2022-08-09T12:07:05.508Z,100344.84
2022-08-09T12:09:37.097Z,100343.19
2022-08-09T12:12:20.433Z,100332.63
2022-08-09T12:15:07.860Z,100341.50
2022-08-09T12:17:45.674Z,100338.72
2022-08-09T12:20:21.353Z,100329.44
2022-08-09T12:22:55.805Z,100334.53
2022-08-09T12:25:36.704Z,100338.94
2022-08-09T12:29:14.243Z,100313.16
2022-08-09T12:31:59.382Z,100322.34
2022-08-09T12:34:33.731Z,100322.06
2022-08-09T12:37:23.873Z,100308.19
2022-08-09T12:40:11.218Z,100312.81
2022-08-09T12:42:45.115Z,100308.59
2022-08-09T12:45:34.899Z,100306.91
2022-08-09T12:48:01.841Z,100295.56
2022-08-09T12:50:29.172Z,100301.69
2022-08-09T12:53:08.790Z,100297.56
2022-08-09T12:56:11.502Z,100296.75
2022-08-09T12:58:28.035Z,100288.75
2022-08-09T13:00:57.748Z,100286.75
2022-08-09T13:03:57.288Z,100294.47
2022-08-09T13:06:39.315Z,100294.00
2022-08-09T13:09:10.377Z,100284.78
2022-08-09T13:11:44.222Z,100284.66
2022-08-09T13:14:41.856Z,100278.44
2022-08-09T13:17:16.107Z,100280.81
2022-08-09T13:20:10.212Z,100281.66
2022-08-09T13:23:02.015Z,100269.91
2022-08-09T13:25:54.396Z,100272.28
2022-08-09T13:28:34.644Z,100275.06
2022-08-09T13:32:13.679Z,100269.06
2022-08-09T13:33:57.181Z,100272.34
2022-08-09T13:36:42.617Z,100271.59
2022-08-09T13:41:55.138Z,100264.78
2022-08-09T13:42:05.532Z,100273.41
2022-08-09T13:44:46.242Z,100267.34
2022-08-09T13:47:33.930Z,100273.94
2022-08-09T13:50:12.463Z,100260.75
2022-08-09T13:52:47.587Z,100261.16
2022-08-09T13:55:17.802Z,100254.06
2022-08-09T13:57:56.148Z,100261.03
2022-08-09T14:00:28.603Z,100258.88
2022-08-09T14:03:16.843Z,100271.72
2022-08-09T14:05:59.716Z,100259.72
2022-08-09T14:08:31.759Z,100255.03
2022-08-09T14:11:00.500Z,100261.25
2022-08-09T14:14:22.379Z,100260.22
2022-08-09T14:16:28.663Z,100242.22
2022-08-09T14:18:58.406Z,100254.16
2022-08-09T14:21:29.546Z,100255.91
2022-08-09T14:24:05.507Z,100250.00
2022-08-09T14:26:39.139Z,100265.28
2022-08-09T14:30:18.915Z,100259.38
2022-08-09T14:31:57.542Z,100262.53
2022-08-09T14:34:30.798Z,100255.13
2022-08-09T14:37:08.109Z,100247.34
2022-08-09T14:39:48.050Z,100259.66
2022-08-09T14:42:30.847Z,100260.25
2022-08-09T14:46:39.706Z,100262.41
2022-08-09T14:48:00.258Z,100254.66
2022-08-09T14:50:34.191Z,100255.28
2022-08-09T14:53:12.114Z,100245.69
2022-08-09T14:55:48.042Z,100236.59
2022-08-09T14:58:19.272Z,100243.84
2022-08-09T15:00:51.167Z,100236.78
2022-08-09T15:03:20.892Z,100239.47
2022-08-09T15:05:52.607Z,100235.41
2022-08-09T15:08:30.380Z,100234.25
2022-08-09T15:11:00.643Z,100231.31
2022-08-09T15:13:47.834Z,100227.66
2022-08-09T15:16:16.972Z,100229.03
2022-08-09T15:18:44.608Z,100234.22
2022-08-09T15:22:00.810Z,100228.59
2022-08-09T15:24:12.944Z,100217.72
2022-08-09T15:26:45.389Z,100226.03
2022-08-09T15:31:00.671Z,100223.88
2022-08-09T15:32:03.263Z,100223.41
2022-08-09T15:34:34.334Z,100227.53
2022-08-09T15:37:24.251Z,100236.44
2022-08-09T15:40:06.499Z,100234.38
2022-08-09T15:42:42.645Z,100232.31
2022-08-09T15:45:12.492Z,100225.50
2022-08-09T15:47:51.619Z,100232.28
2022-08-09T15:50:20.825Z,100235.84
2022-08-09T15:53:06.273Z,100229.47
2022-08-09T15:55:54.048Z,100225.22
2022-08-09T15:58:27.069Z,100220.53
2022-08-09T16:00:56.407Z,100227.56
2022-08-09T16:03:29.665Z,100226.34
2022-08-09T16:06:07.384Z,100228.91
2022-08-09T16:08:56.313Z,100227.25
2022-08-09T16:11:33.023Z,100223.25
2022-08-09T16:14:07.085Z,100218.16
2022-08-09T16:16:38.072Z,100212.19
2022-08-09T16:19:07.810Z,100222.00
2022-08-09T16:21:36.714Z,100207.31
2022-08-09T16:24:05.533Z,100216.50
2022-08-09T16:26:41.232Z,100219.28
2022-08-09T16:29:12.603Z,100206.59
2022-08-09T16:32:18.753Z,100214.97
2022-08-09T16:34:56.040Z,100220.09
2022-08-09T16:37:54.730Z,100217.09
2022-08-09T16:40:12.748Z,100218.06
2022-08-09T16:42:44.907Z,100219.88
2022-08-09T16:45:17.716Z,100220.44
2022-08-09T16:48:40.669Z,100220.84
2022-08-09T16:50:38.756Z,100219.88
2022-08-09T16:53:09.080Z,100220.41
2022-08-09T16:56:01.388Z,100218.47
2022-08-09T16:58:27.562Z,100220.13
2022-08-09T17:00:55.213Z,100218.66
2022-08-09T17:03:26.416Z,100231.00
2022-08-09T17:06:06.812Z,100230.50
2022-08-09T17:08:45.940Z,100237.47
2022-08-09T17:11:39.986Z,100236.97
2022-08-09T17:14:25.295Z,100239.72
2022-08-09T17:16:54.561Z,100239.75
2022-08-09T17:19:21.845Z,100243.72
2022-08-09T17:21:54.463Z,100246.50
2022-08-09T17:24:30.095Z,100258.72
2022-08-09T17:26:58.311Z,100251.31
2022-08-09T17:29:31.905Z,100251.72
2022-08-09T17:32:05.739Z,100258.09
2022-08-09T17:35:04.401Z,100260.09
2022-08-09T17:37:21.149Z,100255.72
2022-08-09T17:39:52.933Z,100260.38
2022-08-09T17:42:41.438Z,100272.03
2022-08-09T17:45:15.985Z,100269.78
2022-08-09T17:47:56.229Z,100272.06
2022-08-09T17:50:36.094Z,100279.63
2022-08-09T17:53:10.561Z,100274.88
2022-08-09T17:55:54.151Z,100281.81
2022-08-09T17:58:22.473Z,100278.19
2022-08-09T18:00:56.417Z,100272.06
2022-08-09T18:03:26.416Z,100276.44
2022-08-09T18:05:57.648Z,100286.28
2022-08-09T18:08:28.211Z,100287.91
2022-08-09T18:11:02.020Z,100287.63
2022-08-09T18:13:39.756Z,100291.78
2022-08-09T18:16:29.122Z,100296.94
2022-08-09T18:18:57.657Z,100289.75
2022-08-09T18:21:26.686Z,100293.84
2022-08-09T18:24:09.999Z,100299.84
2022-08-09T18:26:45.853Z,100308.16
2022-08-09T18:30:41.162Z,100306.66
2022-08-09T18:32:03.273Z,100307.09
2022-08-09T18:34:31.909Z,100306.59
2022-08-09T18:36:59.527Z,100312.53
2022-08-09T18:39:32.000Z,100316.66
2022-08-09T18:42:08.245Z,100320.41
2022-08-09T18:44:36.531Z,100327.22
2022-08-09T18:47:09.747Z,100320.50
2022-08-09T19:42:29.066Z,100346.56
2022-08-09T19:44:56.192Z,100344.50
2022-08-09T19:47:27.067Z,100346.84
2022-08-09T19:50:06.932Z,100360.69
2022-08-09T19:52:49.283Z,100346.47
2022-08-09T19:55:16.752Z,100348.25
2022-08-09T19:57:46.625Z,100339.63
2022-08-09T20:00:15.797Z,100351.53
2022-08-09T20:04:07.235Z,100346.22
2022-08-09T20:05:46.002Z,100348.81
2022-08-09T20:08:16.209Z,100345.22
2022-08-09T20:11:04.113Z,100335.69
2022-08-09T20:13:32.255Z,100342.88
2022-08-09T20:16:37.575Z,100331.91
2022-08-09T20:19:42.599Z,100343.97
2022-08-09T20:21:56.171Z,100342.63
2022-08-09T20:24:29.913Z,100330.53
2022-08-09T20:27:02.773Z,100333.66
2022-08-09T20:29:37.226Z,100337.38
2022-08-09T20:32:30.726Z,100334.97
2022-08-09T20:34:58.140Z,100333.63
2022-08-09T20:37:25.427Z,100333.28
2022-08-09T20:40:15.200Z,100330.78
2022-08-09T20:42:53.248Z,100329.81
2022-08-09T20:45:57.144Z,100327.56
2022-08-09T20:48:21.164Z,100329.09
2022-08-09T20:50:55.656Z,100329.09
2022-08-09T20:53:36.545Z,100328.63
2022-08-09T20:56:20.074Z,100322.28
2022-08-09T20:58:54.175Z,100324.19
2022-08-09T21:01:34.463Z,100319.63
2022-08-09T21:05:51.714Z,100330.78
2022-08-09T21:06:59.974Z,100318.09
2022-08-09T21:09:56.784Z,100318.78
2022-08-09T21:15:23.911Z,100310.78
2022-08-09T21:18:21.016Z,100320.22
2022-08-09T21:20:50.320Z,100313.03
2022-08-09T21:23:21.874Z,100315.78
2022-08-09T21:26:03.990Z,100316.53
2022-08-09T21:28:36.041Z,100319.06
2022-08-09T21:31:17.127Z,100314.66
2022-08-09T21:33:51.677Z,100317.75
2022-08-09T21:36:28.180Z,100320.88
2022-08-09T21:38:58.651Z,100321.38
2022-08-09T21:42:03.930Z,100326.25
2022-08-09T21:44:34.715Z,100327.34
2022-08-09T21:47:08.869Z,100316.59
2022-08-09T21:49:39.946Z,100322.69
2022-08-09T21:52:17.653Z,100319.22
2022-08-09T21:55:02.865Z,100313.34
2022-08-09T21:57:39.586Z,100314.56
2022-08-09T22:00:31.857Z,100318.75
2022-08-09T22:03:06.984Z,100319.94
2022-08-09T22:05:37.189Z,100314.19
2022-08-09T22:08:13.902Z,100316.94
2022-08-09T22:11:50.076Z,100320.28
2022-08-09T22:13:35.722Z,100356.53
2022-08-09T22:16:09.394Z,100345.31
2022-08-09T22:18:53.664Z,100342.66
2022-08-09T22:21:50.420Z,100340.25
2022-08-09T22:24:21.008Z,100333.31
2022-08-09T22:26:52.154Z,100329.59
2022-08-09T22:29:25.322Z,100333.44
2022-08-09T22:31:57.853Z,100326.88
2022-08-09T22:34:26.852Z,100324.13
2022-08-09T22:36:58.622Z,100323.63
2022-08-09T22:39:56.020Z,100330.81
2022-08-09T22:42:21.380Z,100331.63
2022-08-09T22:45:11.520Z,100334.38
2022-08-09T22:48:15.374Z,100336.81
2022-08-09T22:50:31.916Z,100337.97
2022-08-09T22:53:03.370Z,100342.06
2022-08-09T22:56:06.304Z,100349.00
2022-08-09T22:58:30.929Z,100342.66
2022-08-09T23:01:05.472Z,100341.72
2022-08-09T23:04:04.252Z,100341.34
2022-08-09T23:06:34.965Z,100343.38
2022-08-09T23:09:06.235Z,100345.53
2022-08-09T23:11:33.540Z,100347.06
2022-08-09T23:14:00.738Z,100345.53
2022-08-09T23:16:28.555Z,100348.13
2022-08-09T23:18:55.658Z,100348.13
2022-08-09T23:21:26.871Z,100349.66
2022-08-09T23:23:58.774Z,100341.66
2022-08-09T23:26:38.205Z,100344.03
2022-08-09T23:29:06.955Z,100347.00
2022-08-09T23:31:34.511Z,100344.63
2022-08-09T23:34:02.480Z,100340.91
2022-08-09T23:36:29.999Z,100345.19
2022-08-09T23:38:57.241Z,100339.81
2022-08-09T23:41:27.675Z,100342.91
2022-08-09T23:44:00.629Z,100337.16
2022-08-09T23:46:28.980Z,100335.47
2022-08-09T23:48:56.567Z,100331.63
2022-08-09T23:51:23.746Z,100339.16
2022-08-09T23:53:52.503Z,100340.56
2022-08-09T23:56:52.270Z,100338.78
2022-08-09T23:59:10.499Z,100343.44
